Time;durP1;ratioP1;P1;durP2;ratioP2;P2;SDS_P1;SDS_P2;PMS_P1;PMS_P2;Temp;Humidity;BMP_temperature;BMP_pressure;BME280_temperature;BME280_humidity;BME280_pressure;Samples;Min_cycle;Max_cycle;Signal;HPM_P1;HPM_P2
2023/12/24 00:01:22;;;;;;;10.63;10.33;;;8.50;99.90;;;;;;5082057;28;20265;-82
2023/12/24 00:03:54;;;;;;;10.60;10.30;;;8.50;99.90;;;;;;5082381;28;20233;-82
2023/12/24 00:06:21;;;;;;;10.63;10.33;;;8.50;99.90;;;;;;5082089;28;20242;-82
2023/12/24 00:08:48;;;;;;;10.43;10.13;;;8.50;99.90;;;;;;5084026;28;21109;-83
2023/12/24 00:11:16;;;;;;;10.57;10.27;;;8.50;99.90;;;;;;5083562;28;20226;-83
2023/12/24 00:13:43;;;;;;;10.40;10.10;;;8.40;99.90;;;;;;5087164;28;20214;-82
2023/12/24 00:16:10;;;;;;;10.50;10.20;;;8.50;99.90;;;;;;5085958;28;20230;-81
2023/12/24 00:18:38;;;;;;;10.27;9.97;;;8.50;99.90;;;;;;5084954;28;20218;-82
2023/12/24 00:21:07;;;;;;;10.47;10.17;;;8.50;99.90;;;;;;5088644;28;20239;-83
2023/12/24 00:23:34;;;;;;;10.40;10.10;;;8.50;99.90;;;;;;5091064;28;20230;-81
2023/12/24 00:26:01;;;;;;;10.10;9.80;;;8.60;99.90;;;;;;5089721;28;20214;-81
2023/12/24 00:28:31;;;;;;;10.57;10.27;;;8.60;99.90;;;;;;5090825;28;20230;-81
2023/12/24 00:31:01;;;;;;;10.50;10.20;;;8.60;99.90;;;;;;5091486;28;20257;-83
2023/12/24 00:33:31;;;;;;;10.60;10.30;;;8.60;99.90;;;;;;5090848;28;20230;-81
2023/12/24 00:35:58;;;;;;;10.37;10.07;;;8.60;99.90;;;;;;5096383;28;20249;-82
2023/12/24 00:38:29;;;;;;;10.37;10.07;;;8.60;99.90;;;;;;5097974;28;20222;-81
2023/12/24 00:40:57;;;;;;;10.20;9.90;;;8.60;99.90;;;;;;5100316;28;20230;-81
2023/12/24 00:43:24;;;;;;;10.20;9.90;;;8.60;99.90;;;;;;5102515;28;20246;-82
2023/12/24 00:45:55;;;;;;;10.30;10.00;;;8.60;99.90;;;;;;5102141;28;20257;-81
2023/12/24 00:48:22;;;;;;;10.30;10.00;;;8.60;99.90;;;;;;5102664;28;20210;-82
2023/12/24 00:50:49;;;;;;;10.20;9.90;;;8.60;99.90;;;;;;5102408;28;20214;-82
2023/12/24 00:53:17;;;;;;;10.30;10.00;;;8.60;99.90;;;;;;5102074;28;20230;-81
2023/12/24 00:55:45;;;;;;;10.50;10.20;;;8.60;99.90;;;;;;5102501;28;20214;-81
2023/12/24 00:58:14;;;;;;;10.07;9.77;;;8.60;99.90;;;;;;5102057;28;20214;-81
2023/12/24 01:00:42;;;;;;;10.10;9.80;;;8.70;99.90;;;;;;5102501;28;20226;-81
2023/12/24 01:03:09;;;;;;;10.03;9.73;;;8.60;99.90;;;;;;5102172;28;20219;-81
2023/12/24 01:05:36;;;;;;;10.07;9.77;;;8.60;99.90;;;;;;5100998;28;20215;-81
2023/12/24 01:08:04;;;;;;;10.30;10.00;;;8.70;99.90;;;;;;5102003;28;20213;-82
2023/12/24 01:10:31;;;;;;;10.27;9.97;;;8.70;99.90;;;;;;5101943;28;20222;-82
2023/12/24 01:12:59;;;;;;;10.03;9.73;;;8.70;99.90;;;;;;5101910;28;20329;-82
2023/12/24 01:15:27;;;;;;;10.27;9.97;;;8.70;99.90;;;;;;5101775;28;20210;-82
2023/12/24 01:17:54;;;;;;;10.30;10.00;;;8.60;99.90;;;;;;5101658;28;20226;-81
2023/12/24 01:20:21;;;;;;;10.50;10.20;;;8.60;99.90;;;;;;5102017;28;20222;-81
2023/12/24 01:22:49;;;;;;;10.13;9.83;;;8.60;99.90;;;;;;5101560;28;20225;-82
2023/12/24 01:25:17;;;;;;;10.23;9.93;;;8.60;99.90;;;;;;5101705;28;20206;-83
2023/12/24 01:27:45;;;;;;;10.00;9.70;;;8.60;99.90;;;;;;5101509;28;20230;-83
2023/12/24 01:30:14;;;;;;;10.30;10.00;;;8.60;99.90;;;;;;5094444;28;20362;-83
2023/12/24 01:32:42;;;;;;;10.07;9.77;;;8.60;99.90;;;;;;5093931;28;20403;-83
2023/12/24 01:35:11;;;;;;;9.90;9.60;;;8.60;99.90;;;;;;5101557;28;20214;-83
2023/12/24 01:37:50;;;;;;;10.20;9.90;;;8.60;99.90;;;;;;5101375;28;20222;-83
2023/12/24 01:40:18;;;;;;;10.23;9.93;;;8.60;99.90;;;;;;5101759;28;20253;-83
2023/12/24 01:42:45;;;;;;;10.27;9.97;;;8.60;99.90;;;;;;5095647;28;20290;-84
2023/12/24 01:45:17;;;;;;;10.30;10.00;;;8.60;99.90;;;;;;5089286;28;20252;-83
2023/12/24 01:47:45;;;;;;;10.20;9.90;;;8.60;99.90;;;;;;5098560;28;20210;-83
2023/12/24 01:50:13;;;;;;;10.50;10.20;;;8.60;99.90;;;;;;5100260;28;20225;-84
2023/12/24 01:52:40;;;;;;;10.13;9.83;;;8.60;99.90;;;;;;5089252;28;20226;-84
2023/12/24 01:55:08;;;;;;;10.43;10.13;;;8.60;99.90;;;;;;5088088;28;20241;-84
2023/12/24 01:57:37;;;;;;;10.40;10.10;;;8.60;99.90;;;;;;5087125;28;20238;-83
2023/12/24 02:00:06;;;;;;;10.43;10.13;;;8.60;99.90;;;;;;5087562;28;20226;-84
2023/12/24 02:02:37;;;;;;;10.43;10.13;;;8.50;99.90;;;;;;5086535;28;20237;-83
2023/12/24 02:05:05;;;;;;;10.40;10.10;;;8.50;99.90;;;;;;5085897;28;20329;-83
2023/12/24 02:07:40;;;;;;;10.47;10.17;;;8.50;99.90;;;;;;5085629;28;20292;-83
2023/12/24 02:10:13;;;;;;;10.37;10.07;;;8.50;99.90;;;;;;5086504;28;20249;-83
2023/12/24 02:12:40;;;;;;;10.20;9.90;;;8.50;99.90;;;;;;5088513;28;20232;-84
2023/12/24 02:15:09;;;;;;;10.03;9.73;;;8.50;99.90;;;;;;5090425;28;20222;-83
2023/12/24 02:17:40;;;;;;;10.30;10.00;;;8.60;99.90;;;;;;5089880;28;20260;-84
2023/12/24 02:20:11;;;;;;;10.10;9.80;;;8.60;99.90;;;;;;5089777;28;20222;-83
2023/12/24 02:22:40;;;;;;;10.20;9.90;;;8.60;99.90;;;;;;5088682;28;20222;-83
2023/12/24 02:25:08;;;;;;;10.20;9.90;;;8.60;99.90;;;;;;5088076;28;20327;-83
2023/12/24 02:27:45;;;;;;;10.27;9.97;;;8.60;99.90;;;;;;5085862;28;20234;-83
2023/12/24 02:30:21;;;;;;;10.47;10.17;;;8.60;99.90;;;;;;5085859;28;20332;-83
2023/12/24 02:32:55;;;;;;;10.10;9.80;;;8.70;99.90;;;;;;5085656;28;20319;-83
2023/12/24 02:35:25;;;;;;;10.20;9.90;;;8.70;99.90;;;;;;5085142;28;20309;-83
2023/12/24 02:37:54;;;;;;;10.20;9.90;;;8.70;99.90;;;;;;5084482;28;20238;-83
2023/12/24 02:40:22;;;;;;;10.17;9.87;;;8.70;99.90;;;;;;5085010;28;20234;-83
2023/12/24 02:42:50;;;;;;;10.50;10.20;;;8.70;99.90;;;;;;5084584;28;20229;-83
2023/12/24 02:45:17;;;;;;;10.47;10.17;;;8.70;99.90;;;;;;5084280;28;20219;-83
2023/12/24 02:47:45;;;;;;;10.23;9.93;;;8.70;99.90;;;;;;5084000;28;20298;-83
2023/12/24 02:50:12;;;;;;;10.40;10.10;;;8.70;99.90;;;;;;5084514;28;20230;-83
2023/12/24 02:52:42;;;;;;;10.27;9.97;;;8.70;99.90;;;;;;5083951;28;20340;-84
2023/12/24 02:55:11;;;;;;;10.30;10.00;;;8.70;99.90;;;;;;5083818;28;20222;-83
2023/12/24 02:57:39;;;;;;;10.30;10.00;;;8.70;99.90;;;;;;5083283;28;20249;-84
2023/12/24 03:00:09;;;;;;;10.20;9.90;;;8.70;99.90;;;;;;5082919;28;20234;-83
2023/12/24 03:02:37;;;;;;;10.47;10.17;;;8.70;99.90;;;;;;5082565;28;20229;-82
2023/12/24 03:05:05;;;;;;;10.13;9.83;;;8.70;99.90;;;;;;5081429;28;20233;-83
2023/12/24 03:07:33;;;;;;;10.37;10.07;;;8.80;99.90;;;;;;5082857;28;20289;-83
2023/12/24 03:10:00;;;;;;;10.20;9.90;;;8.80;99.90;;;;;;5082460;28;20240;-82
2023/12/24 03:12:32;;;;;;;10.00;9.70;;;8.80;99.90;;;;;;5084426;28;20288;-84
2023/12/24 03:14:59;;;;;;;10.10;9.80;;;8.80;99.90;;;;;;5082785;28;20221;-83
2023/12/24 03:17:27;;;;;;;10.50;10.20;;;8.80;99.90;;;;;;5082464;28;20242;-83
2023/12/24 03:19:54;;;;;;;10.07;9.77;;;8.70;99.90;;;;;;5083019;28;20230;-83
2023/12/24 03:22:22;;;;;;;10.10;9.80;;;8.70;99.90;;;;;;5082541;28;20230;-83
2023/12/24 03:24:49;;;;;;;10.20;9.90;;;8.70;99.90;;;;;;5082386;28;20236;-83
2023/12/24 03:27:20;;;;;;;10.23;9.93;;;8.70;99.90;;;;;;5083132;28;20233;-83
2023/12/24 03:29:48;;;;;;;10.30;10.00;;;8.70;99.90;;;;;;5082533;28;20234;-84
2023/12/24 03:32:16;;;;;;;10.33;10.03;;;8.70;99.90;;;;;;5082000;28;20248;-83
2023/12/24 03:34:43;;;;;;;10.30;10.00;;;8.70;99.90;;;;;;5082210;28;20234;-84
2023/12/24 03:37:11;;;;;;;10.13;9.83;;;8.70;99.90;;;;;;5082007;28;20252;-83
2023/12/24 03:39:38;;;;;;;9.97;9.67;;;8.70;99.90;;;;;;5082954;28;20293;-83
2023/12/24 03:42:06;;;;;;;10.40;10.10;;;8.70;99.90;;;;;;5082343;28;20656;-84
2023/12/24 03:44:36;;;;;;;10.20;9.90;;;8.70;99.90;;;;;;5082513;28;20280;-83
2023/12/24 03:47:06;;;;;;;10.50;10.20;;;8.70;99.90;;;;;;5089748;28;20265;-82
2023/12/24 03:49:33;;;;;;;10.53;10.23;;;8.70;99.90;;;;;;5092248;28;20230;-83
2023/12/24 03:52:01;;;;;;;10.50;10.20;;;8.70;99.90;;;;;;5086930;28;20229;-82
2023/12/24 03:54:29;;;;;;;10.20;9.90;;;8.80;99.90;;;;;;5085100;28;20214;-82
2023/12/24 03:56:56;;;;;;;10.40;10.10;;;8.80;99.90;;;;;;5082473;28;20233;-83
2023/12/24 03:59:23;;;;;;;10.10;9.80;;;8.80;99.90;;;;;;5082553;28;20288;-83
2023/12/24 04:01:51;;;;;;;10.40;10.10;;;8.80;99.90;;;;;;5082694;28;20312;-82
2023/12/24 04:04:19;;;;;;;10.30;10.00;;;8.80;99.90;;;;;;5081306;28;20230;-83
2023/12/24 04:06:47;;;;;;;10.13;9.83;;;8.80;99.90;;;;;;5081555;28;20248;-83
2023/12/24 04:09:15;;;;;;;10.30;10.00;;;8.90;99.90;;;;;;5084613;28;20227;-84
2023/12/24 04:11:42;;;;;;;10.20;9.90;;;8.80;99.90;;;;;;5083668;28;20237;-83
2023/12/24 04:14:10;;;;;;;10.13;9.83;;;8.90;99.90;;;;;;5081484;28;20227;-83
2023/12/24 04:16:39;;;;;;;10.57;10.27;;;8.80;99.90;;;;;;5084005;28;20234;-82
2023/12/24 04:19:07;;;;;;;10.57;10.27;;;8.80;99.90;;;;;;5085226;28;20234;-82
2023/12/24 04:21:36;;;;;;;10.33;10.03;;;8.80;99.90;;;;;;5085219;28;20226;-84
2023/12/24 04:24:03;;;;;;;10.50;10.20;;;8.80;99.90;;;;;;5085229;28;20234;-83
2023/12/24 04:26:30;;;;;;;10.30;10.00;;;8.80;99.90;;;;;;5085020;28;20234;-82
2023/12/24 04:28:57;;;;;;;10.50;10.20;;;8.80;99.90;;;;;;5084455;28;20234;-83
2023/12/24 04:31:25;;;;;;;10.40;10.10;;;8.80;99.90;;;;;;5085055;28;20234;-82
2023/12/24 04:33:52;;;;;;;10.37;10.07;;;8.80;99.90;;;;;;5084405;28;20229;-83
2023/12/24 04:36:20;;;;;;;10.47;10.17;;;8.80;99.90;;;;;;5084919;28;20264;-82
2023/12/24 04:38:49;;;;;;;10.53;10.23;;;8.70;99.90;;;;;;5088340;28;20296;-82
2023/12/24 04:41:17;;;;;;;10.20;9.90;;;8.80;99.90;;;;;;5085991;28;20245;-81
2023/12/24 04:43:45;;;;;;;10.50;10.20;;;8.80;99.90;;;;;;5084685;28;20305;-82
2023/12/24 04:46:12;;;;;;;10.20;9.90;;;8.80;99.90;;;;;;5083762;28;20234;-83
2023/12/24 04:48:40;;;;;;;10.33;10.03;;;8.80;99.90;;;;;;5084571;28;20333;-81
2023/12/24 04:51:07;;;;;;;10.30;10.00;;;8.80;99.90;;;;;;5084866;28;20218;-83
2023/12/24 04:53:34;;;;;;;10.50;10.20;;;8.80;99.90;;;;;;5084484;28;20226;-82
2023/12/24 04:56:04;;;;;;;10.30;10.00;;;8.70;99.90;;;;;;5084579;28;20296;-82
2023/12/24 04:58:31;;;;;;;10.47;10.17;;;8.70;99.90;;;;;;5084424;28;20311;-82
2023/12/24 05:00:59;;;;;;;10.57;10.27;;;8.70;99.90;;;;;;5084520;28;20234;-83
2023/12/24 05:03:26;;;;;;;10.37;10.07;;;8.70;99.90;;;;;;5084638;28;20226;-82
2023/12/24 05:05:53;;;;;;;10.40;10.10;;;8.80;99.90;;;;;;5083510;28;20265;-82
2023/12/24 05:08:21;;;;;;;10.70;10.40;;;8.70;99.90;;;;;;5084946;28;20233;-82
2023/12/24 05:10:48;;;;;;;10.60;10.30;;;8.70;99.90;;;;;;5084883;28;20270;-82
2023/12/24 05:13:17;;;;;;;10.57;10.27;;;8.70;99.90;;;;;;5084213;28;20233;-82
2023/12/24 05:15:44;;;;;;;10.50;10.20;;;8.70;99.90;;;;;;5084739;28;20239;-82
2023/12/24 05:18:11;;;;;;;10.40;10.10;;;8.70;99.90;;;;;;5084853;28;20257;-82
2023/12/24 05:20:39;;;;;;;10.47;10.17;;;8.70;99.90;;;;;;5095323;28;20214;-81
2023/12/24 05:23:06;;;;;;;10.40;10.10;;;8.70;99.90;;;;;;5084382;28;20214;-81
2023/12/24 05:25:33;;;;;;;10.50;10.20;;;8.70;99.90;;;;;;5083280;28;20230;-82
2023/12/24 05:28:00;;;;;;;10.20;9.90;;;8.70;99.90;;;;;;5083698;28;20230;-82
2023/12/24 05:30:29;;;;;;;10.20;9.90;;;8.70;99.90;;;;;;5084261;28;20241;-81
2023/12/24 05:32:56;;;;;;;10.30;10.00;;;8.70;99.90;;;;;;5084455;28;20226;-83
2023/12/24 05:35:23;;;;;;;10.00;9.70;;;8.70;99.90;;;;;;5084558;28;20233;-82
2023/12/24 05:37:51;;;;;;;9.83;9.53;;;8.70;99.90;;;;;;5083778;28;20333;-82
2023/12/24 05:40:18;;;;;;;10.20;9.90;;;8.70;99.90;;;;;;5083777;28;20241;-82
2023/12/24 05:42:45;;;;;;;10.20;9.90;;;8.70;99.90;;;;;;5083530;28;20214;-82
2023/12/24 05:45:13;;;;;;;10.27;9.97;;;8.70;99.90;;;;;;5084245;28;20265;-82
2023/12/24 05:47:42;;;;;;;10.17;9.87;;;8.70;99.90;;;;;;5083282;28;20226;-82
2023/12/24 05:50:10;;;;;;;10.00;9.70;;;8.70;99.90;;;;;;5084561;28;20288;-82
2023/12/24 05:52:39;;;;;;;10.30;10.00;;;8.70;99.90;;;;;;5083798;28;20230;-82
2023/12/24 05:55:08;;;;;;;10.00;9.70;;;8.70;99.90;;;;;;5085182;28;20238;-81
2023/12/24 05:57:35;;;;;;;9.97;9.67;;;8.70;99.90;;;;;;5085270;28;20282;-82
2023/12/24 06:00:05;;;;;;;10.00;9.70;;;8.70;99.90;;;;;;5085174;28;20273;-82
2023/12/24 06:02:32;;;;;;;9.93;9.63;;;8.80;99.90;;;;;;5086176;28;20214;-82
2023/12/24 06:05:01;;;;;;;10.00;9.70;;;8.80;99.90;;;;;;5086984;28;20241;-83
2023/12/24 06:07:28;;;;;;;9.80;9.50;;;8.80;99.90;;;;;;5098029;28;20226;-82
2023/12/24 06:09:55;;;;;;;9.93;9.63;;;8.80;99.90;;;;;;5099255;28;20252;-81
2023/12/24 06:12:23;;;;;;;9.90;9.60;;;8.80;99.90;;;;;;5100271;28;20203;-82
2023/12/24 06:14:50;;;;;;;9.87;9.57;;;8.80;99.90;;;;;;5093375;28;20218;-81
2023/12/24 06:17:17;;;;;;;10.23;9.93;;;8.80;99.90;;;;;;5087365;28;20233;-82
2023/12/24 06:19:45;;;;;;;9.90;9.60;;;8.80;99.90;;;;;;5086695;28;20238;-81
2023/12/24 06:22:14;;;;;;;10.10;9.80;;;8.80;99.90;;;;;;5085501;28;20241;-82
2023/12/24 06:24:41;;;;;;;10.17;9.87;;;8.70;99.90;;;;;;5086715;28;20233;-82
2023/12/24 06:27:09;;;;;;;10.23;9.93;;;8.70;99.90;;;;;;5084805;28;20288;-82
2023/12/24 06:29:38;;;;;;;10.27;9.97;;;8.70;99.90;;;;;;5084022;28;20246;-82
2023/12/24 06:32:06;;;;;;;10.30;10.00;;;8.60;99.90;;;;;;5083540;28;20254;-81
2023/12/24 06:34:33;;;;;;;10.10;9.80;;;8.60;99.90;;;;;;5084521;28;20230;-81
2023/12/24 06:37:00;;;;;;;10.17;9.87;;;8.60;99.90;;;;;;5084319;28;20230;-82
2023/12/24 06:39:29;;;;;;;10.20;9.90;;;8.60;99.90;;;;;;5082942;28;20245;-82
2023/12/24 06:41:57;;;;;;;10.20;9.90;;;8.60;99.90;;;;;;5085015;28;20288;-82
2023/12/24 06:44:24;;;;;;;10.30;10.00;;;8.50;99.90;;;;;;5085323;28;20226;-83
2023/12/24 06:46:51;;;;;;;10.47;10.17;;;8.50;99.90;;;;;;5084298;28;20237;-82
2023/12/24 06:49:19;;;;;;;10.20;9.90;;;8.40;99.90;;;;;;5084137;28;20291;-81
2023/12/24 06:51:47;;;;;;;10.57;10.27;;;8.30;99.90;;;;;;5083692;28;20222;-81
2023/12/24 06:54:14;;;;;;;10.30;10.00;;;8.30;99.90;;;;;;5083764;28;20280;-82
2023/12/24 06:56:43;;;;;;;10.60;10.30;;;8.30;99.90;;;;;;5083929;28;20234;-81
2023/12/24 06:59:11;;;;;;;10.67;10.37;;;8.20;99.90;;;;;;5096254;28;20221;-81
2023/12/24 07:01:38;;;;;;;10.40;10.10;;;8.20;99.90;;;;;;5099240;28;20221;-82
2023/12/24 07:04:06;;;;;;;10.53;10.23;;;8.20;99.90;;;;;;5087369;28;20230;-81
2023/12/24 07:06:33;;;;;;;10.70;10.40;;;8.10;99.90;;;;;;5084298;28;20234;-81
2023/12/24 07:09:00;;;;;;;10.50;10.20;;;8.10;99.90;;;;;;5088223;28;20284;-82
2023/12/24 07:11:27;;;;;;;10.77;10.40;;;8.10;99.90;;;;;;5084838;28;20285;-81
2023/12/24 07:13:56;;;;;;;10.50;10.20;;;8.00;99.90;;;;;;5083884;28;20236;-81
2023/12/24 07:16:24;;;;;;;10.50;10.20;;;8.00;99.90;;;;;;5081917;28;20268;-82
2023/12/24 07:18:51;;;;;;;10.10;9.80;;;8.00;99.90;;;;;;5082977;28;20246;-82
2023/12/24 07:21:19;;;;;;;10.47;10.17;;;8.00;99.90;;;;;;5082481;28;20230;-81
2023/12/24 07:23:46;;;;;;;10.60;10.30;;;8.00;99.90;;;;;;5082951;28;20237;-81
2023/12/24 07:26:14;;;;;;;10.40;10.10;;;8.00;99.90;;;;;;5083091;28;20301;-81
2023/12/24 07:28:41;;;;;;;10.93;10.53;;;8.00;99.90;;;;;;5087014;28;21188;-81
2023/12/24 07:31:14;;;;;;;10.50;10.20;;;8.00;99.90;;;;;;5086498;28;20230;-81
2023/12/24 07:33:41;;;;;;;10.10;9.80;;;8.00;99.90;;;;;;5086711;28;20320;-81
2023/12/24 07:36:09;;;;;;;10.03;9.73;;;8.00;99.90;;;;;;5085356;28;20253;-81
2023/12/24 07:38:36;;;;;;;10.40;10.10;;;8.00;99.90;;;;;;5083771;28;20284;-82
2023/12/24 07:41:04;;;;;;;10.23;9.93;;;8.00;99.90;;;;;;5082922;28;20222;-81
2023/12/24 07:43:32;;;;;;;10.30;10.00;;;8.00;99.90;;;;;;5082425;28;20368;-81
2023/12/24 07:45:59;;;;;;;10.30;10.00;;;8.00;99.90;;;;;;5081880;28;20238;-82
2023/12/24 07:48:28;;;;;;;10.33;10.03;;;8.00;99.90;;;;;;5082261;28;20238;-82
2023/12/24 07:50:56;;;;;;;10.33;10.03;;;8.00;99.90;;;;;;5084292;28;20217;-82
2023/12/24 07:53:25;;;;;;;10.20;9.90;;;8.00;99.90;;;;;;5085783;28;20226;-83
2023/12/24 07:55:52;;;;;;;10.30;10.00;;;8.00;99.90;;;;;;5085042;28;20233;-82
2023/12/24 07:58:19;;;;;;;10.30;10.00;;;8.10;99.90;;;;;;5084978;28;20295;-82
2023/12/24 08:00:47;;;;;;;10.43;10.13;;;8.10;99.90;;;;;;5085712;28;20238;-82
2023/12/24 08:03:14;;;;;;;10.53;10.23;;;8.10;99.90;;;;;;5085493;28;20230;-83
2023/12/24 08:05:43;;;;;;;10.10;9.80;;;8.00;99.90;;;;;;5084978;28;20249;-82
2023/12/24 08:08:10;;;;;;;10.03;9.73;;;8.00;99.90;;;;;;5085616;28;20222;-82
2023/12/24 08:10:37;;;;;;;10.43;10.13;;;8.00;99.90;;;;;;5086889;28;20230;-82
2023/12/24 08:13:05;;;;;;;10.20;9.90;;;8.00;99.90;;;;;;5088576;28;20320;-82
2023/12/24 08:15:32;;;;;;;10.43;10.13;;;8.00;99.90;;;;;;5096393;28;20221;-83
2023/12/24 08:18:00;;;;;;;10.53;10.23;;;8.00;99.90;;;;;;5098126;28;20206;-82
2023/12/24 08:20:28;;;;;;;10.50;10.20;;;8.00;99.90;;;;;;5097297;28;20226;-82
2023/12/24 08:22:56;;;;;;;10.23;9.93;;;8.00;99.90;;;;;;5098314;28;20237;-82
2023/12/24 08:25:24;;;;;;;10.50;10.20;;;8.00;99.90;;;;;;5096728;28;20246;-82
2023/12/24 08:27:51;;;;;;;10.33;10.03;;;8.00;99.90;;;;;;5099005;28;20322;-82
2023/12/24 08:30:18;;;;;;;10.23;9.93;;;8.00;99.90;;;;;;5097992;28;20249;-83
2023/12/24 08:32:51;;;;;;;10.13;9.83;;;8.00;99.90;;;;;;5098081;28;20234;-82
2023/12/24 08:35:19;;;;;;;10.40;10.10;;;8.00;99.90;;;;;;5096249;28;20268;-82
2023/12/24 08:37:46;;;;;;;10.23;9.93;;;8.00;99.90;;;;;;5098542;28;20222;-82
2023/12/24 08:40:16;;;;;;;10.20;9.90;;;8.00;99.90;;;;;;5099755;28;20226;-81
2023/12/24 08:42:43;;;;;;;10.07;9.77;;;8.00;99.90;;;;;;5100549;28;20280;-82
2023/12/24 08:45:12;;;;;;;10.03;9.73;;;8.00;99.90;;;;;;5099070;28;20366;-82
2023/12/24 08:47:40;;;;;;;9.93;9.63;;;8.00;99.90;;;;;;5098681;28;20237;-82
2023/12/24 08:50:08;;;;;;;10.30;10.00;;;8.00;99.90;;;;;;5098609;28;20262;-83
2023/12/24 08:52:36;;;;;;;10.23;9.93;;;7.90;99.90;;;;;;5096155;28;20242;-82
2023/12/24 08:55:09;;;;;;;10.20;9.90;;;7.90;99.90;;;;;;5093783;28;20275;-83
2023/12/24 08:57:37;;;;;;;10.20;9.90;;;7.90;99.90;;;;;;5096522;28;20237;-82
2023/12/24 09:00:11;;;;;;;10.43;10.13;;;7.90;99.90;;;;;;5100718;28;20209;-82
2023/12/24 09:02:39;;;;;;;10.30;10.00;;;7.90;99.90;;;;;;5094608;28;20230;-82
2023/12/24 09:05:08;;;;;;;10.33;10.03;;;7.90;99.90;;;;;;5092216;28;20301;-82
2023/12/24 09:07:36;;;;;;;10.50;10.20;;;7.80;99.90;;;;;;5097559;28;20222;-82
2023/12/24 09:10:04;;;;;;;10.10;9.80;;;7.80;99.90;;;;;;5099199;28;20233;-82
2023/12/24 09:12:31;;;;;;;10.30;10.00;;;7.80;99.90;;;;;;5099382;28;20241;-82
2023/12/24 09:15:00;;;;;;;10.50;10.20;;;7.80;99.90;;;;;;5099292;28;20232;-82
2023/12/24 09:17:27;;;;;;;10.50;10.20;;;7.80;99.90;;;;;;5098937;28;20218;-82
2023/12/24 09:19:55;;;;;;;10.10;9.80;;;7.80;99.90;;;;;;5099439;28;20252;-82
2023/12/24 09:22:25;;;;;;;10.40;10.10;;;7.80;99.90;;;;;;5099598;28;20233;-82
2023/12/24 09:24:52;;;;;;;10.27;9.97;;;7.80;99.90;;;;;;5096909;28;20218;-82
2023/12/24 09:27:20;;;;;;;10.70;10.40;;;7.80;99.90;;;;;;5095936;28;20324;-82
2023/12/24 09:29:47;;;;;;;10.07;9.77;;;7.70;99.90;;;;;;5096121;28;20226;-82
2023/12/24 09:32:16;;;;;;;9.87;9.57;;;7.70;99.90;;;;;;5091596;28;20241;-82
2023/12/24 09:34:44;;;;;;;10.40;10.10;;;7.70;99.90;;;;;;5090517;28;20230;-82
2023/12/24 09:37:12;;;;;;;10.47;10.17;;;7.70;99.90;;;;;;5085423;28;20234;-82
2023/12/24 09:39:39;;;;;;;10.90;10.50;;;7.70;99.90;;;;;;5089614;28;20214;-83
2023/12/24 09:42:07;;;;;;;10.67;10.37;;;7.70;99.90;;;;;;5085510;28;20253;-82
2023/12/24 09:44:35;;;;;;;10.70;10.40;;;7.70;99.90;;;;;;5086157;28;20222;-82
2023/12/24 09:47:02;;;;;;;10.80;10.50;;;7.80;99.90;;;;;;5085263;28;20234;-82
2023/12/24 09:49:31;;;;;;;10.63;10.33;;;7.70;99.90;;;;;;5085192;28;20312;-83
2023/12/24 09:52:01;;;;;;;10.70;10.40;;;7.70;99.90;;;;;;5089386;28;20276;-82
2023/12/24 09:54:28;;;;;;;10.63;10.33;;;7.70;99.90;;;;;;5094243;28;20240;-81
2023/12/24 09:56:57;;;;;;;10.90;10.50;;;7.70;99.90;;;;;;5096698;28;20230;-82
2023/12/24 09:59:24;;;;;;;10.70;10.40;;;7.70;99.90;;;;;;5095760;28;20218;-82
2023/12/24 10:01:52;;;;;;;10.37;10.07;;;7.70;99.90;;;;;;5091972;28;20284;-82
2023/12/24 10:04:19;;;;;;;10.30;10.00;;;7.70;99.90;;;;;;5085823;28;20222;-82
2023/12/24 10:06:56;;;;;;;10.40;10.10;;;7.80;99.90;;;;;;5094220;28;20256;-81
2023/12/24 10:09:25;;;;;;;10.27;9.97;;;7.80;99.90;;;;;;5084645;28;20222;-82
2023/12/24 10:12:06;;;;;;;10.00;9.70;;;7.80;99.90;;;;;;5084442;28;20253;-82
2023/12/24 10:14:33;;;;;;;10.20;9.90;;;7.80;99.90;;;;;;5083826;28;20226;-82
2023/12/24 10:17:03;;;;;;;10.40;10.10;;;7.80;99.90;;;;;;5084641;28;20245;-83
2023/12/24 10:19:31;;;;;;;10.20;9.90;;;7.80;99.90;;;;;;5084456;28;20226;-82
2023/12/24 10:22:05;;;;;;;10.50;10.20;;;7.80;99.90;;;;;;5085506;28;20256;-82
2023/12/24 10:24:34;;;;;;;9.90;9.60;;;7.80;99.90;;;;;;5089306;28;20233;-83
2023/12/24 10:27:07;;;;;;;10.10;9.80;;;7.80;99.90;;;;;;5087256;28;20238;-82
2023/12/24 10:29:36;;;;;;;10.27;9.97;;;7.80;99.90;;;;;;5086605;28;20215;-82
2023/12/24 10:32:04;;;;;;;10.17;9.87;;;7.90;99.90;;;;;;5088039;28;20222;-82
2023/12/24 10:34:33;;;;;;;10.00;9.70;;;7.90;99.90;;;;;;5085398;28;20285;-82
2023/12/24 10:37:18;;;;;;;9.90;9.60;;;7.90;99.90;;;;;;5084697;28;20230;-82
2023/12/24 10:39:46;;;;;;;9.90;9.60;;;7.90;99.90;;;;;;5086111;28;20214;-82
2023/12/24 10:42:14;;;;;;;9.87;9.57;;;8.00;99.90;;;;;;5085256;28;20222;-82
2023/12/24 10:44:42;;;;;;;9.70;9.40;;;8.00;99.90;;;;;;5084871;28;20230;-82
2023/12/24 10:47:10;;;;;;;9.40;9.10;;;8.00;99.90;;;;;;5086416;28;20219;-83
2023/12/24 10:49:39;;;;;;;9.03;8.73;;;8.00;99.90;;;;;;5086250;28;20234;-83
2023/12/24 10:52:07;;;;;;;9.10;8.80;;;8.10;99.90;;;;;;5086306;28;20238;-83
2023/12/24 10:54:37;;;;;;;9.30;9.00;;;8.10;99.90;;;;;;5095092;28;20218;-82
2023/12/24 10:57:20;;;;;;;9.57;9.27;;;8.10;99.90;;;;;;5100301;28;20218;-82
2023/12/24 11:00:07;;;;;;;9.60;9.30;;;8.10;99.90;;;;;;5100083;28;20254;-82
2023/12/24 11:02:36;;;;;;;9.50;9.20;;;8.20;99.90;;;;;;5100425;28;20214;-83
2023/12/24 11:05:04;;;;;;;9.47;9.17;;;8.20;99.90;;;;;;5097755;28;20210;-83
2023/12/24 11:07:48;;;;;;;9.60;9.30;;;8.20;99.90;;;;;;5100157;28;20230;-83
2023/12/24 11:10:40;;;;;;;10.00;9.70;;;8.30;99.90;;;;;;5098064;28;20206;-82
2023/12/24 11:13:45;;;;;;;9.73;9.43;;;8.30;99.90;;;;;;5100250;28;20218;-82
2023/12/24 11:16:13;;;;;;;9.70;9.40;;;8.40;99.90;;;;;;5100113;28;20234;-82
2023/12/24 11:18:43;;;;;;;9.57;9.27;;;8.40;99.90;;;;;;5099754;28;20218;-82
2023/12/24 11:21:12;;;;;;;9.20;8.90;;;8.40;99.90;;;;;;5099927;28;20224;-82
2023/12/24 11:23:40;;;;;;;9.60;9.30;;;8.40;99.90;;;;;;5099698;28;20210;-81
2023/12/24 11:26:31;;;;;;;9.70;9.40;;;8.50;99.90;;;;;;5099382;28;20226;-83
2023/12/24 11:28:59;;;;;;;9.60;9.30;;;8.50;99.90;;;;;;5097243;28;20215;-82
2023/12/24 11:31:31;;;;;;;10.10;9.80;;;8.50;99.90;;;;;;5090198;28;20249;-81
2023/12/24 11:33:59;;;;;;;9.97;9.67;;;8.50;99.90;;;;;;5096483;28;20234;-83
2023/12/24 11:36:28;;;;;;;10.17;9.87;;;8.60;99.90;;;;;;5088504;28;20230;-82
2023/12/24 11:38:59;;;;;;;10.23;9.93;;;8.70;99.90;;;;;;5084429;28;20225;-81
2023/12/24 11:41:28;;;;;;;10.30;10.00;;;8.70;99.90;;;;;;5084583;28;20245;-81
2023/12/24 11:43:59;;;;;;;10.20;9.90;;;8.80;99.90;;;;;;5084079;28;20225;-83
2023/12/24 11:46:28;;;;;;;9.83;9.53;;;8.80;99.90;;;;;;5084699;28;20325;-82
2023/12/24 11:48:56;;;;;;;10.60;10.30;;;8.80;99.90;;;;;;5083337;28;20226;-82
2023/12/24 11:51:26;;;;;;;9.97;9.67;;;8.80;99.90;;;;;;5084404;28;20240;-82
2023/12/24 11:54:00;;;;;;;10.10;9.80;;;8.90;99.90;;;;;;5084466;28;20222;-82
2023/12/24 11:56:30;;;;;;;10.37;10.07;;;8.90;99.90;;;;;;5084389;28;20242;-83
2023/12/24 11:59:01;;;;;;;10.10;9.80;;;9.00;99.90;;;;;;5084890;28;20226;-83
2023/12/24 12:01:31;;;;;;;10.00;9.70;;;9.00;99.90;;;;;;5084015;28;20325;-81
2023/12/24 12:04:01;;;;;;;10.40;10.10;;;9.00;99.90;;;;;;5084479;28;20232;-82
2023/12/24 12:06:29;;;;;;;10.23;9.93;;;9.00;99.90;;;;;;5087904;28;20304;-82
2023/12/24 12:08:58;;;;;;;10.37;10.07;;;9.00;99.90;;;;;;5085803;28;20218;-83
2023/12/24 12:11:27;;;;;;;9.90;9.60;;;9.10;99.90;;;;;;5087925;28;20234;-83
2023/12/24 12:14:03;;;;;;;10.33;10.03;;;9.10;99.90;;;;;;5084298;28;20254;-82
2023/12/24 12:16:31;;;;;;;9.93;9.63;;;9.10;99.90;;;;;;5083780;28;20229;-82
2023/12/24 12:18:58;;;;;;;10.50;10.20;;;9.10;99.90;;;;;;5083424;28;20226;-82
2023/12/24 12:21:26;;;;;;;10.23;9.93;;;9.10;99.90;;;;;;5083505;28;20230;-83
2023/12/24 12:23:57;;;;;;;10.00;9.70;;;9.20;99.90;;;;;;5084285;28;20245;-82
2023/12/24 12:26:25;;;;;;;10.00;9.70;;;9.20;99.90;;;;;;5084127;28;20238;-83
2023/12/24 12:28:59;;;;;;;10.17;9.87;;;9.30;99.90;;;;;;5084212;28;20238;-83
2023/12/24 12:31:28;;;;;;;10.10;9.80;;;9.30;99.90;;;;;;5083945;28;20238;-82
2023/12/24 12:33:55;;;;;;;10.23;9.93;;;9.40;99.90;;;;;;5096999;28;20221;-82
2023/12/24 12:36:22;;;;;;;10.17;9.87;;;9.40;99.90;;;;;;5095158;28;20234;-82
2023/12/24 12:38:50;;;;;;;10.10;9.80;;;9.40;99.90;;;;;;5088999;28;20234;-82
2023/12/24 12:41:17;;;;;;;10.13;9.83;;;9.40;99.90;;;;;;5088012;28;20742;-82
2023/12/24 12:43:44;;;;;;;10.10;9.80;;;9.50;99.90;;;;;;5087491;28;20699;-82
2023/12/24 12:46:12;;;;;;;9.90;9.60;;;9.50;99.90;;;;;;5087913;28;20327;-83
2023/12/24 12:48:41;;;;;;;10.37;10.07;;;9.50;99.90;;;;;;5087278;28;20226;-80
2023/12/24 12:51:09;;;;;;;10.10;9.80;;;9.50;99.90;;;;;;5087068;28;20305;-83